createdAt,value
2019-02-15T00:01:26.575Z,26.33
2019-02-15T00:06:50.152Z,27.47
2019-02-15T00:09:27.457Z,26.53
2019-02-15T00:12:17.711Z,28.07
2019-02-15T00:15:02.968Z,30.20
2019-02-15T00:18:10.810Z,28.33
2019-02-15T00:20:57.393Z,28.07
2019-02-15T00:23:45.891Z,29.30
2019-02-15T00:26:17.703Z,28.63
2019-02-15T00:28:51.284Z,29.70
2019-02-15T00:31:25.359Z,27.73
2019-02-15T00:34:11.020Z,27.23
2019-02-15T00:36:48.107Z,30.37
2019-02-15T00:39:50.624Z,29.20
2019-02-15T00:42:30.260Z,29.07
2019-02-15T00:44:59.626Z,30.80
2019-02-15T00:48:16.725Z,29.50
2019-02-15T00:51:10.247Z,29.13
2019-02-15T00:54:11.907Z,31.03
2019-02-15T00:57:03.555Z,29.30
2019-02-15T01:00:00.325Z,27.47
2019-02-15T01:03:14.102Z,29.67
2019-02-15T01:09:30.098Z,30.10
2019-02-15T01:12:28.346Z,27.33
2019-02-15T01:14:58.211Z,28.23
2019-02-15T01:17:35.185Z,31.57
2019-02-15T01:20:14.830Z,27.80
2019-02-15T01:28:50.561Z,28.67
2019-02-15T01:31:46.152Z,28.23
2019-02-15T01:34:48.371Z,29.80
2019-02-15T01:37:57.828Z,28.27
2019-02-15T01:40:49.431Z,27.83
2019-02-15T01:43:41.042Z,28.80
2019-02-15T01:46:58.361Z,27.67
2019-02-15T01:49:34.392Z,28.33
2019-02-15T01:52:04.262Z,29.07
2019-02-15T01:54:40.074Z,28.53
2019-02-15T02:00:04.075Z,27.60
2019-02-15T02:02:43.781Z,30.00
2019-02-15T02:05:20.380Z,28.03
2019-02-15T02:08:02.852Z,27.50
2019-02-15T02:10:56.123Z,26.63
2019-02-15T02:13:31.161Z,28.10
2019-02-15T02:19:09.421Z,26.97
2019-02-15T02:24:46.199Z,28.10
2019-02-15T02:27:25.779Z,27.87
2019-02-15T02:30:05.683Z,28.83
2019-02-15T02:33:06.120Z,28.00
2019-02-15T02:35:40.234Z,27.23
2019-02-15T02:38:23.226Z,27.13
2019-02-15T02:40:53.636Z,26.83
2019-02-15T02:43:59.449Z,27.83
2019-02-15T02:46:30.236Z,26.57
2019-02-15T02:49:06.476Z,25.53
2019-02-15T02:51:43.659Z,27.23
2019-02-15T02:54:36.585Z,26.27
2019-02-15T02:57:11.093Z,25.80
2019-02-15T02:59:40.155Z,27.73
2019-02-15T03:02:31.980Z,26.17
2019-02-15T03:05:11.718Z,27.67
2019-02-15T03:07:44.686Z,25.47
2019-02-15T03:10:14.884Z,25.17
2019-02-15T03:13:12.109Z,25.57
2019-02-15T03:15:48.484Z,26.27
2019-02-15T03:18:22.196Z,24.63
2019-02-15T03:21:03.379Z,24.97
2019-02-15T03:23:48.440Z,24.30
2019-02-15T03:26:26.278Z,27.63
2019-02-15T03:29:07.714Z,24.03
2019-02-15T03:31:42.511Z,26.10
2019-02-15T03:34:23.414Z,24.20
2019-02-15T03:37:23.360Z,25.13
2019-02-15T03:40:09.047Z,23.90
2019-02-15T03:42:53.343Z,23.77
2019-02-15T03:45:27.516Z,25.03
2019-02-15T03:48:14.431Z,23.73
2019-02-15T03:50:52.204Z,23.30
2019-02-15T03:53:26.915Z,23.93
2019-02-15T03:56:01.878Z,23.00
2019-02-15T03:58:45.802Z,22.60
2019-02-15T04:01:33.095Z,21.97
2019-02-15T04:04:15.930Z,22.50
2019-02-15T04:06:50.897Z,21.87
2019-02-15T04:09:20.916Z,23.30
2019-02-15T04:11:51.903Z,22.87
2019-02-15T04:14:32.855Z,22.57
2019-02-15T04:17:01.427Z,20.00
2019-02-15T04:19:52.464Z,21.83
2019-02-15T04:22:31.424Z,20.87
2019-02-15T04:28:05.148Z,19.57
2019-02-15T04:30:48.871Z,18.97
2019-02-15T04:33:37.515Z,18.57
2019-02-15T04:36:27.063Z,17.93
2019-02-15T04:38:58.909Z,18.13
2019-02-15T04:41:29.556Z,18.33
2019-02-15T04:44:07.235Z,18.87
2019-02-15T04:47:00.666Z,18.20
2019-02-15T04:49:31.693Z,18.40
2019-02-15T04:52:45.344Z,19.07
2019-02-15T04:55:19.515Z,17.07
2019-02-15T04:57:51.713Z,16.80
2019-02-15T05:01:32.450Z,17.63
2019-02-15T05:03:25.241Z,16.80
2019-02-15T05:06:04.496Z,16.43
2019-02-15T05:08:45.405Z,17.23
2019-02-15T05:11:25.745Z,16.40
2019-02-15T05:14:02.268Z,15.97
2019-02-15T05:16:47.798Z,16.00
2019-02-15T05:19:22.550Z,15.63
2019-02-15T05:22:13.674Z,14.93
2019-02-15T05:25:00.790Z,14.67
2019-02-15T05:27:34.369Z,15.63
2019-02-15T05:30:23.912Z,15.70
2019-02-15T05:32:55.531Z,17.17
2019-02-15T05:35:34.672Z,14.60
2019-02-15T05:38:13.181Z,15.03
2019-02-15T05:40:45.174Z,14.17
2019-02-15T05:43:24.697Z,14.67
2019-02-15T05:45:53.834Z,15.30
2019-02-15T05:48:24.289Z,13.73
2019-02-15T05:50:59.441Z,14.97
2019-02-15T05:53:41.389Z,14.63
2019-02-15T05:56:22.668Z,14.37
2019-02-15T05:58:45.976Z,14.83
2019-02-15T06:01:14.944Z,14.03
2019-02-15T06:03:46.456Z,14.23
2019-02-15T06:06:15.312Z,14.10
2019-02-15T06:08:44.287Z,15.00
2019-02-15T06:13:59.049Z,13.60
2019-02-15T06:16:28.283Z,14.23
2019-02-15T06:19:00.494Z,15.87
2019-02-15T06:21:29.588Z,13.97
2019-02-15T06:23:58.542Z,13.10
2019-02-15T06:26:27.641Z,14.00
2019-02-15T06:29:17.798Z,13.80
2019-02-15T06:32:05.596Z,13.13
2019-02-15T06:34:34.650Z,13.43
2019-02-15T06:37:09.212Z,13.87
2019-02-15T06:39:38.224Z,12.60
2019-02-15T06:42:08.911Z,14.13
2019-02-15T06:44:53.309Z,12.17
2019-02-15T06:47:22.333Z,14.67
2019-02-15T06:49:53.031Z,13.60
2019-02-15T06:52:23.881Z,11.93
2019-02-15T06:54:55.565Z,12.20
2019-02-15T06:57:25.457Z,12.43
2019-02-15T07:00:22.678Z,12.27
2019-02-15T07:03:05.825Z,11.30
2019-02-15T07:05:40.202Z,10.77
2019-02-15T07:08:10.052Z,11.40
2019-02-15T07:10:48.055Z,11.70
2019-02-15T07:13:17.129Z,12.10
2019-02-15T07:15:54.453Z,11.63
2019-02-15T07:18:26.295Z,9.67
2019-02-15T07:20:55.115Z,13.93
2019-02-15T07:23:33.966Z,12.77
2019-02-15T07:26:06.281Z,17.53
2019-02-15T07:28:42.920Z,11.50
2019-02-15T07:31:15.675Z,15.57
2019-02-15T07:33:46.341Z,13.33
2019-02-15T07:36:16.386Z,12.60
2019-02-15T07:38:49.136Z,12.73
2019-02-15T07:41:28.451Z,12.80
2019-02-15T07:44:10.943Z,15.27
2019-02-15T07:46:43.410Z,15.73
2019-02-15T07:49:26.605Z,18.73
2019-02-15T07:52:11.607Z,16.43
2019-02-15T07:54:53.386Z,15.63
2019-02-15T07:57:30.467Z,17.37
2019-02-15T07:59:56.812Z,19.07
2019-02-15T08:02:32.922Z,20.90
2019-02-15T08:05:03.387Z,20.80
2019-02-15T08:07:38.937Z,22.67
2019-02-15T08:10:15.680Z,23.00
2019-02-15T08:12:47.462Z,21.73
2019-02-15T08:15:35.959Z,21.23
2019-02-15T08:18:06.872Z,19.63
2019-02-15T08:20:44.616Z,22.37
2019-02-15T08:23:14.061Z,24.20
2019-02-15T08:25:55.532Z,22.17
2019-02-15T08:28:33.599Z,23.33
2019-02-15T08:31:12.840Z,24.47
2019-02-15T08:33:52.313Z,20.60
2019-02-15T08:36:28.127Z,21.13
2019-02-15T08:38:59.060Z,28.00
2019-02-15T08:41:39.368Z,24.70
2019-02-15T08:44:16.103Z,25.00
2019-02-15T08:46:54.635Z,26.67
2019-02-15T08:49:28.753Z,24.70
2019-02-15T08:52:03.768Z,24.57
2019-02-15T08:54:43.331Z,21.70
2019-02-15T08:57:29.513Z,19.87
2019-02-15T09:00:21.833Z,20.20
2019-02-15T09:02:58.139Z,17.70
2019-02-15T09:05:35.263Z,19.87
2019-02-15T09:08:31.438Z,20.10
2019-02-15T09:11:27.453Z,18.73
2019-02-15T09:13:58.511Z,21.57
2019-02-15T09:16:33.391Z,15.50
2019-02-15T09:19:06.218Z,17.33
2019-02-15T09:21:36.184Z,18.90
2019-02-15T09:24:05.585Z,17.27
2019-02-15T09:26:36.231Z,15.63
2019-02-15T09:29:08.127Z,17.70
2019-02-15T09:31:43.021Z,14.20
2019-02-15T09:34:13.900Z,14.93
2019-02-15T09:36:42.982Z,14.03
2019-02-15T09:41:53.955Z,12.53
2019-02-15T09:44:24.677Z,13.13
2019-02-15T09:46:54.153Z,15.53
2019-02-15T09:49:25.804Z,12.43
2019-02-15T09:51:55.588Z,13.90
2019-02-15T09:54:45.847Z,11.67
2019-02-15T09:57:15.008Z,13.50
2019-02-15T10:00:01.670Z,13.90
2019-02-15T10:02:33.911Z,11.87
2019-02-15T10:05:07.027Z,11.23
2019-02-15T10:07:35.990Z,9.50
2019-02-15T10:10:06.488Z,12.20
2019-02-15T10:12:35.394Z,10.57
2019-02-15T10:15:07.950Z,13.80
2019-02-15T10:17:39.173Z,10.80
2019-02-15T10:20:09.221Z,11.40
2019-02-15T10:22:50.160Z,11.50
2019-02-15T10:25:19.084Z,13.33
2019-02-15T10:27:53.014Z,13.93
2019-02-15T10:30:22.432Z,13.07
2019-02-15T10:32:53.040Z,14.87
2019-02-15T10:35:37.680Z,13.60
2019-02-15T10:38:09.998Z,13.10
2019-02-15T10:40:44.261Z,14.83
2019-02-15T10:43:15.658Z,10.93
2019-02-15T10:45:44.462Z,10.97
2019-02-15T10:48:16.133Z,10.87
2019-02-15T10:50:53.928Z,10.00
2019-02-15T10:53:23.057Z,10.93
2019-02-15T10:55:58.157Z,11.33
2019-02-15T10:58:27.008Z,11.40
2019-02-15T11:01:10.572Z,8.87
2019-02-15T11:03:52.988Z,8.77
2019-02-15T11:06:22.695Z,12.43
2019-02-15T11:08:51.607Z,9.27
2019-02-15T11:11:31.027Z,9.80
2019-02-15T11:14:00.315Z,12.23
2019-02-15T11:16:29.117Z,9.37
2019-02-15T11:19:00.166Z,8.70
2019-02-15T11:21:31.939Z,9.73
2019-02-15T11:24:01.215Z,8.93
2019-02-15T11:26:30.305Z,8.80
2019-02-15T11:29:02.212Z,8.83
2019-02-15T11:31:31.900Z,8.47
2019-02-15T11:34:02.285Z,7.70
2019-02-15T11:36:31.465Z,8.27
2019-02-15T11:39:00.395Z,9.33
2019-02-15T11:44:32.733Z,7.07
2019-02-15T11:48:36.740Z,9.87
2019-02-15T11:52:22.928Z,7.97
2019-02-15T11:54:53.833Z,8.27
2019-02-15T11:57:25.716Z,7.07
2019-02-15T12:00:14.759Z,7.90
2019-02-15T12:02:53.992Z,7.83
2019-02-15T12:05:24.160Z,7.80
2019-02-15T12:08:01.184Z,8.00
2019-02-15T12:10:32.923Z,8.27
2019-02-15T12:13:01.914Z,8.20
2019-02-15T12:15:31.418Z,6.77
2019-02-15T12:18:05.970Z,7.17
2019-02-15T12:20:56.803Z,7.17
2019-02-15T12:25:55.745Z,8.40
2019-02-15T12:28:24.676Z,8.47
2019-02-15T12:30:54.836Z,7.83
2019-02-15T12:33:23.821Z,7.37
2019-02-15T12:35:57.402Z,8.27
2019-02-15T12:38:26.298Z,8.10
2019-02-15T12:40:56.827Z,10.07
2019-02-15T12:46:07.443Z,10.37
2019-02-15T12:48:41.861Z,8.90
2019-02-15T12:51:14.288Z,8.70
2019-02-15T12:53:43.794Z,7.23
2019-02-15T12:56:15.301Z,9.17
2019-02-15T12:58:48.085Z,8.33
2019-02-15T13:01:17.847Z,8.73
2019-02-15T13:03:48.697Z,8.67
2019-02-15T13:06:28.398Z,9.53
2019-02-15T13:11:36.156Z,13.13
2019-02-15T13:14:10.329Z,9.47
2019-02-15T13:16:48.201Z,10.10
2019-02-15T13:19:17.951Z,8.67
2019-02-15T13:21:46.836Z,9.80
2019-02-15T13:24:15.791Z,11.60
2019-02-15T13:27:02.274Z,9.03
2019-02-15T13:29:42.834Z,11.97
2019-02-15T13:32:11.709Z,8.90
2019-02-15T13:35:07.079Z,11.33
2019-02-15T13:37:37.463Z,9.27
2019-02-15T13:40:07.362Z,10.83
2019-02-15T13:42:37.195Z,13.37
2019-02-15T13:45:08.833Z,10.30
2019-02-15T13:47:39.144Z,8.43
2019-02-15T13:50:09.354Z,9.37
2019-02-15T13:52:40.071Z,9.87
2019-02-15T13:55:12.561Z,8.80
2019-02-15T13:57:43.191Z,8.23
2019-02-15T14:00:13.953Z,9.20
2019-02-15T14:02:43.120Z,10.77
2019-02-15T14:05:11.936Z,8.20
2019-02-15T14:07:42.329Z,8.10
2019-02-15T14:10:39.051Z,10.03
2019-02-15T14:16:08.668Z,8.33
2019-02-15T14:18:37.601Z,7.53
2019-02-15T14:21:08.246Z,9.67
2019-02-15T14:23:51.747Z,11.43
2019-02-15T14:26:23.879Z,8.73
2019-02-15T14:28:59.300Z,9.40
2019-02-15T14:31:28.183Z,12.37
2019-02-15T14:33:56.967Z,11.20
2019-02-15T14:36:26.191Z,9.77
2019-02-15T14:38:55.131Z,11.83
2019-02-15T14:41:41.227Z,11.27
2019-02-15T14:44:18.263Z,11.60
2019-02-15T14:46:47.256Z,10.77
2019-02-15T14:49:16.036Z,12.77
2019-02-15T14:51:44.863Z,12.17
2019-02-15T14:54:15.999Z,16.47
2019-02-15T14:56:44.856Z,12.73
2019-02-15T14:59:13.811Z,11.33
2019-02-15T15:04:30.019Z,14.37
2019-02-15T15:07:01.051Z,12.50
2019-02-15T15:09:31.481Z,13.97
2019-02-15T15:12:05.223Z,13.37
2019-02-15T15:14:39.231Z,13.80
2019-02-15T15:20:08.367Z,13.53
2019-02-15T15:22:58.188Z,13.43
2019-02-15T15:25:27.287Z,13.20
2019-02-15T15:28:17.436Z,12.20
2019-02-15T15:30:46.234Z,12.00
2019-02-15T15:33:22.976Z,12.87
2019-02-15T15:35:52.044Z,13.03
2019-02-15T15:38:21.655Z,11.70
2019-02-15T15:40:58.906Z,12.00
2019-02-15T15:46:15.405Z,11.50
2019-02-15T15:49:00.247Z,19.73
2019-02-15T15:51:34.502Z,10.83
2019-02-15T15:54:20.491Z,14.27
2019-02-15T15:56:53.111Z,13.63
2019-02-15T15:59:26.374Z,11.73
2019-02-15T16:01:55.948Z,10.20
2019-02-15T16:04:26.549Z,11.77
2019-02-15T16:06:56.539Z,17.17
2019-02-15T16:09:25.434Z,12.07
2019-02-15T16:11:59.761Z,11.63
2019-02-15T16:14:33.875Z,11.00
2019-02-15T16:17:02.740Z,10.40
2019-02-15T16:25:24.477Z,12.50
2019-02-15T16:27:53.398Z,14.00
2019-02-15T16:30:31.294Z,10.73
2019-02-15T16:33:18.877Z,11.77
2019-02-15T16:38:36.783Z,13.10
2019-02-15T16:44:10.930Z,11.77
2019-02-15T16:46:41.098Z,12.00
2019-02-15T16:49:11.341Z,9.47
2019-02-15T16:51:41.032Z,13.47
2019-02-15T16:54:26.246Z,10.73
2019-02-15T16:56:58.286Z,8.67
2019-02-15T16:59:35.677Z,10.20
2019-02-15T17:02:04.901Z,11.07
2019-02-15T17:04:43.563Z,10.73
2019-02-15T17:07:12.491Z,9.33
2019-02-15T17:09:44.236Z,9.67
2019-02-15T17:12:17.212Z,10.93
2019-02-15T17:14:53.865Z,9.83
2019-02-15T17:17:22.715Z,10.37
2019-02-15T17:19:56.172Z,9.30
2019-02-15T17:22:27.727Z,11.27
2019-02-15T17:25:00.426Z,11.63
2019-02-15T17:27:38.130Z,10.23
2019-02-15T17:30:07.652Z,11.07
2019-02-15T17:32:36.702Z,9.60
2019-02-15T17:35:13.208Z,9.73
2019-02-15T17:54:42.337Z,8.90
2019-02-15T17:57:11.222Z,10.53
2019-02-15T18:03:02.495Z,9.47
2019-02-15T18:05:41.384Z,9.77
2019-02-15T18:08:14.528Z,9.37
2019-02-15T18:10:54.723Z,9.17
2019-02-15T18:13:25.353Z,10.23
2019-02-15T18:15:54.992Z,11.20
2019-02-15T18:18:25.509Z,8.70
2019-02-15T18:21:02.282Z,9.90
2019-02-15T18:23:28.645Z,10.17
2019-02-15T18:26:04.031Z,11.13
2019-02-15T18:28:47.696Z,9.80
2019-02-15T18:31:16.653Z,10.93
2019-02-15T18:33:48.533Z,11.30
2019-02-15T18:36:22.768Z,9.67
2019-02-15T18:38:57.425Z,12.10
2019-02-15T18:41:27.204Z,10.30
2019-02-15T18:43:56.330Z,9.37
2019-02-15T18:46:34.379Z,10.30
2019-02-15T18:49:05.306Z,9.73
2019-02-15T18:54:24.969Z,12.80
2019-02-15T18:56:53.860Z,12.00
2019-02-15T18:59:25.524Z,11.43
2019-02-15T19:05:22.590Z,10.33
2019-02-15T19:07:51.512Z,12.97
2019-02-15T19:10:20.465Z,12.33
2019-02-15T19:12:56.084Z,9.27
2019-02-15T19:15:30.671Z,7.57
2019-02-15T19:18:23.477Z,8.73
2019-02-15T19:20:58.319Z,10.40
2019-02-15T19:23:28.880Z,9.83
2019-02-15T19:25:58.460Z,11.70
2019-02-15T19:28:31.661Z,10.93
2019-02-15T19:31:08.831Z,8.20
2019-02-15T19:33:38.353Z,7.70
2019-02-15T19:36:09.070Z,7.87
2019-02-15T19:38:43.898Z,8.80
2019-02-15T19:41:15.966Z,7.50
2019-02-15T19:43:45.310Z,7.33
2019-02-15T19:46:14.652Z,8.93
2019-02-15T19:48:43.747Z,7.87
2019-02-15T19:51:14.632Z,10.10
2019-02-15T19:53:45.358Z,8.67
2019-02-15T19:56:25.835Z,13.43
2019-02-15T19:59:02.799Z,9.97
2019-02-15T20:01:41.204Z,9.90
2019-02-15T20:04:10.185Z,10.03
2019-02-15T20:06:40.717Z,9.93
2019-02-15T20:09:11.196Z,8.30
2019-02-15T20:18:00.026Z,8.83
2019-02-15T20:20:29.147Z,9.40
2019-02-15T20:23:02.045Z,7.50
2019-02-15T20:31:51.179Z,13.37
2019-02-15T20:34:27.479Z,31.27
2019-02-15T20:36:53.171Z,83.13
2019-02-15T20:39:32.949Z,62.63
2019-02-15T20:42:27.755Z,56.73
2019-02-15T20:44:58.214Z,49.27
2019-02-15T20:47:30.687Z,41.03
2019-02-15T20:50:03.113Z,36.00
2019-02-15T20:52:33.821Z,38.23
2019-02-15T20:55:02.743Z,37.37
2019-02-15T20:57:38.415Z,41.27
2019-02-15T21:00:10.497Z,37.13
2019-02-15T21:02:39.605Z,33.27
2019-02-15T21:05:24.086Z,34.23
2019-02-15T21:07:44.658Z,33.63
2019-02-15T21:10:18.703Z,30.97
2019-02-15T21:12:47.854Z,29.40
2019-02-15T21:15:18.923Z,27.93
2019-02-15T21:17:48.682Z,27.07
2019-02-15T21:22:55.962Z,21.27
2019-02-15T21:25:32.912Z,21.93
2019-02-15T21:28:05.826Z,24.00
2019-02-15T21:30:36.416Z,28.30
2019-02-15T21:38:59.392Z,24.60
2019-02-15T21:41:39.209Z,22.50
2019-02-15T21:44:08.565Z,17.40
2019-02-15T21:46:38.233Z,23.13
2019-02-15T21:49:09.906Z,21.07
2019-02-15T21:51:38.883Z,18.60
2019-02-15T21:54:09.492Z,23.40
2019-02-15T21:56:39.247Z,20.87
2019-02-15T22:04:33.879Z,26.03
2019-02-15T22:07:03.206Z,16.90
2019-02-15T22:09:32.197Z,21.43
2019-02-15T22:12:01.046Z,20.67
2019-02-15T22:14:30.852Z,18.93
2019-02-15T22:17:00.580Z,19.37
2019-02-15T22:19:34.511Z,20.70
2019-02-15T22:22:03.542Z,21.33
2019-02-15T22:24:33.431Z,18.97
2019-02-15T22:27:02.400Z,19.60
2019-02-15T22:29:33.115Z,21.23
2019-02-15T22:32:06.914Z,24.23
2019-02-15T22:34:35.860Z,20.67
2019-02-15T22:37:04.737Z,18.37
2019-02-15T22:42:10.228Z,19.10
2019-02-15T22:44:54.588Z,20.00
2019-02-15T22:47:38.447Z,21.90
2019-02-15T22:50:08.215Z,22.80
2019-02-15T22:52:39.269Z,20.30
2019-02-15T22:58:17.213Z,23.23
2019-02-15T23:01:00.395Z,22.80
2019-02-15T23:03:40.049Z,20.73
2019-02-15T23:06:17.176Z,21.03
2019-02-15T23:08:50.622Z,20.83
2019-02-15T23:11:23.206Z,24.50
2019-02-15T23:14:07.274Z,24.13
2019-02-15T23:16:51.252Z,21.00
2019-02-15T23:19:22.247Z,21.00
2019-02-15T23:21:51.139Z,23.27
2019-02-15T23:24:24.095Z,22.07
2019-02-15T23:26:55.199Z,21.63
2019-02-15T23:30:21.102Z,21.87
2019-02-15T23:33:09.439Z,22.43
2019-02-15T23:36:03.987Z,24.33
2019-02-15T23:38:39.883Z,25.80
2019-02-15T23:41:10.792Z,22.33
2019-02-15T23:43:39.597Z,23.37
2019-02-15T23:46:09.695Z,23.30
2019-02-15T23:48:47.689Z,21.50
2019-02-15T23:54:02.296Z,21.23
2019-02-15T23:56:31.501Z,20.77
2019-02-15T23:59:01.795Z,19.73
